This is the latest recevied weather packets stored in our database for station/object SP9MLI-1. If no packets are shown the sender has not sent any weather packets the latest 10 day(s).
| Time | Temp. | Humidity | Pressure | Rain* | Wind** | Luminosity | Snow |
|---|---|---|---|---|---|---|---|
| 1777527492 | 4.44° C | 75% | 1027.5 hPa | 0 mm | - | - | - |
| 1777526592 | 3.89° C | 77% | 1027.5 hPa | 0 mm | - | - | - |
| 1777525692 | 3.33° C | 76% | 1027.5 hPa | 0 mm | - | - | - |
| 1777524792 | 2.78° C | 78% | 1027.2 hPa | 0 mm | - | - | - |
| 1777523892 | 2.22° C | 79% | 1027.5 hPa | 0 mm | - | - | - |
| 1777522993 | 2.22° C | 80% | 1027.2 hPa | 0 mm | - | - | - |
| 1777522092 | 1.67° C | 81% | 1027.2 hPa | 0 mm | - | - | - |
| 1777521192 | 1.67° C | 81% | 1027.2 hPa | 0 mm | - | - | - |
| 1777520292 | 1.11° C | 81% | 1027.2 hPa | 0 mm | - | - | - |
| 1777519392 | 1.11° C | 81% | 1027.2 hPa | 0 mm | - | - | - |
| 1777518492 | 1.11° C | 83% | 1027.2 hPa | 0 mm | - | - | - |
| 1777516692 | 0.56° C | 81% | 1027.2 hPa | 0 mm | - | - | - |
| 1777515792 | 0° C | 82% | 1027.2 hPa | 0 mm | - | - | - |
| 1777514895 | 0° C | 81% | 1027.2 hPa | 0 mm | - | - | - |
| 1777513992 | 0° C | 80% | 1027.2 hPa | 0 mm | - | - | - |
| 1777512192 | -2.78° C | 85% | 1026.9 hPa | 0 mm | - | - | - |
| 1777511292 | -2.78° C | 85% | 1026.9 hPa | 0 mm | - | - | - |
| 1777502293 | -2.22° C | 83% | 1027.2 hPa | 0 mm | - | - | - |
| 1777501393 | -2.22° C | 83% | 1027.2 hPa | 0 mm | - | - | - |
| 1777500493 | -1.67° C | 83% | 1027.2 hPa | 0 mm | - | - | - |
| 1777498693 | -1.67° C | 81% | 1026.9 hPa | 0 mm | - | - | - |
| 1777497793 | -1.11° C | 81% | 1027.2 hPa | 0 mm | - | - | - |
| 1777496893 | -1.11° C | 80% | 1026.9 hPa | 0 mm | - | - | - |
| 1777494193 | -0.56° C | 77% | 1027.2 hPa | 0 mm | - | - | - |
| 1777492393 | 2.78° C | 66% | 1027.9 hPa | 0 mm | - | - | - |
* Rain latest hour (hover to see other rain measurements)
** Current wind speed in m/s (hover to see current wind gust speed)